Time;durP1;ratioP1;P1;durP2;ratioP2;P2;SDS_P1;SDS_P2;PMS_P1;PMS_P2;Temp;Humidity;BMP_temperature;BMP_pressure;BME280_temperature;BME280_humidity;BME280_pressure;Samples;Min_cycle;Max_cycle;Signal;HPM_P1;HPM_P2
2023/12/06 00:02:00;;;;;;;0.85;0.85;;;4.10;99.90;;;;;;4966526;28;20038;-83
2023/12/06 00:04:27;;;;;;;0.45;0.45;;;4.10;99.90;;;;;;4952323;28;20469;-82
2023/12/06 00:06:53;;;;;;;0.40;0.40;;;4.10;99.90;;;;;;4946033;28;20035;-81
2023/12/06 00:09:19;;;;;;;0.85;0.85;;;4.20;99.90;;;;;;4951663;28;20043;-81
2023/12/06 00:11:45;;;;;;;0.15;0.15;;;4.20;99.90;;;;;;4968679;28;20046;-81
2023/12/06 00:14:12;;;;;;;0.85;0.52;;;4.20;99.90;;;;;;4964140;28;20031;-82
2023/12/06 00:16:39;;;;;;;0.90;0.85;;;4.20;99.90;;;;;;4962218;28;20030;-81
2023/12/06 00:19:06;;;;;;;1.05;1.05;;;4.20;99.90;;;;;;4965597;28;20046;-81
2023/12/06 00:21:33;;;;;;;1.65;1.17;;;4.20;99.90;;;;;;4965008;28;20037;-81
2023/12/06 00:23:59;;;;;;;0.50;0.50;;;4.20;99.90;;;;;;4962591;28;20031;-82
2023/12/06 00:26:25;;;;;;;2.47;1.02;;;4.20;99.90;;;;;;4961876;28;20039;-81
2023/12/06 00:28:53;;;;;;;1.85;0.68;;;4.20;99.90;;;;;;4967422;28;20046;-81
2023/12/06 00:31:19;;;;;;;0.28;0.28;;;4.20;99.90;;;;;;4950118;28;20042;-81
2023/12/06 00:33:45;;;;;;;0.40;0.40;;;4.30;99.90;;;;;;4965673;28;20469;-81
2023/12/06 00:36:11;;;;;;;0.20;0.20;;;4.20;99.90;;;;;;4964976;28;20440;-80
2023/12/06 00:38:38;;;;;;;0.10;0.10;;;4.20;99.90;;;;;;4961508;28;20046;-80
2023/12/06 00:41:05;;;;;;;1.33;0.73;;;4.20;99.90;;;;;;4966055;28;20038;-80
2023/12/06 00:43:31;;;;;;;0.65;0.52;;;4.20;99.90;;;;;;4968236;28;20057;-80
2023/12/06 00:45:58;;;;;;;0.43;0.43;;;4.30;99.90;;;;;;4963928;28;20063;-81
2023/12/06 00:48:24;;;;;;;0.30;0.30;;;4.20;99.90;;;;;;4932310;28;20070;-81
2023/12/06 00:50:50;;;;;;;0.30;0.30;;;4.20;99.90;;;;;;4950902;28;20199;-82
2023/12/06 00:53:16;;;;;;;0.40;0.40;;;4.20;99.90;;;;;;4965148;28;20065;-81
2023/12/06 00:55:42;;;;;;;0.63;0.52;;;4.20;99.90;;;;;;4949745;28;20038;-81
2023/12/06 00:58:08;;;;;;;0.45;0.43;;;4.20;99.90;;;;;;4964162;28;20034;-81
2023/12/06 01:00:35;;;;;;;0.85;0.68;;;4.20;99.90;;;;;;4929140;28;20062;-81
2023/12/06 01:03:01;;;;;;;0.20;0.20;;;4.20;99.90;;;;;;4968048;28;20445;-81
2023/12/06 01:05:27;;;;;;;0.70;0.70;;;4.20;99.90;;;;;;4949613;28;20370;-81
2023/12/06 01:07:53;;;;;;;11.65;0.85;;;4.20;99.90;;;;;;4944190;28;20027;-81
2023/12/06 01:10:19;;;;;;;1.65;0.63;;;4.20;99.90;;;;;;4960383;28;20047;-80
2023/12/06 01:12:45;;;;;;;0.45;0.45;;;4.20;99.90;;;;;;4965144;28;20043;-81
2023/12/06 01:15:11;;;;;;;0.10;0.10;;;4.20;99.90;;;;;;4965858;28;20037;-81
2023/12/06 01:17:38;;;;;;;0.85;0.55;;;4.20;99.90;;;;;;4951192;28;20036;-81
2023/12/06 01:20:06;;;;;;;0.95;0.95;;;4.20;99.90;;;;;;4957428;28;20043;-80
2023/12/06 01:22:32;;;;;;;2.03;1.13;;;4.20;99.90;;;;;;4962975;28;20038;-81
2023/12/06 01:24:58;;;;;;;0.50;0.50;;;4.20;99.90;;;;;;4961607;28;20047;-81
2023/12/06 01:27:25;;;;;;;0.20;0.20;;;4.20;99.90;;;;;;4963916;28;20617;-80
2023/12/06 01:29:51;;;;;;;0.85;0.75;;;4.20;99.90;;;;;;4934066;28;20039;-80
2023/12/06 01:32:17;;;;;;;0.10;0.10;;;4.20;99.90;;;;;;4957302;28;20042;-81
2023/12/06 01:34:47;;;;;;;0.32;0.32;;;4.20;99.90;;;;;;4947548;28;20046;-81
2023/12/06 01:37:13;;;;;;;0.20;0.20;;;4.20;99.90;;;;;;4963616;28;20047;-81
2023/12/06 01:39:39;;;;;;;0.43;0.43;;;4.20;99.90;;;;;;4958989;28;20058;-81
2023/12/06 01:42:05;;;;;;;0.52;0.52;;;4.20;99.90;;;;;;4942596;28;20165;-81
2023/12/06 01:44:31;;;;;;;0.47;0.47;;;4.20;99.90;;;;;;4937319;28;20050;-81
2023/12/06 01:46:57;;;;;;;0.47;0.47;;;4.20;99.90;;;;;;4968169;28;20047;-80
2023/12/06 01:49:26;;;;;;;0.20;0.20;;;4.20;99.90;;;;;;4964192;28;20054;-81
2023/12/06 01:51:52;;;;;;;0.47;0.47;;;4.20;99.90;;;;;;4957309;28;20035;-81
2023/12/06 01:54:18;;;;;;;0.43;0.43;;;4.20;99.90;;;;;;4964290;28;20035;-81
2023/12/06 01:56:45;;;;;;;0.45;0.45;;;4.20;99.90;;;;;;4953300;28;20038;-81
2023/12/06 01:59:11;;;;;;;0.20;0.20;;;4.20;99.90;;;;;;4945891;28;20039;-81
2023/12/06 02:01:38;;;;;;;0.22;0.20;;;4.20;99.90;;;;;;4956960;28;20050;-81
2023/12/06 02:04:05;;;;;;;0.73;0.70;;;4.20;99.90;;;;;;4963845;28;20035;-81
2023/12/06 02:06:31;;;;;;;0.10;0.10;;;4.20;99.90;;;;;;4963841;28;20035;-81
2023/12/06 02:08:59;;;;;;;2.47;1.08;;;4.20;99.90;;;;;;4947133;28;20051;-81
2023/12/06 02:11:25;;;;;;;0.40;0.40;;;4.20;99.90;;;;;;4961655;28;20041;-81
2023/12/06 02:13:51;;;;;;;0.50;0.50;;;4.20;99.90;;;;;;4957764;28;20515;-81
2023/12/06 02:16:17;;;;;;;1.05;0.95;;;4.20;99.90;;;;;;4962253;28;20053;-81
2023/12/06 02:18:44;;;;;;;0.55;0.55;;;4.20;99.90;;;;;;4963293;28;20035;-81
2023/12/06 02:21:11;;;;;;;1.23;0.82;;;4.20;99.90;;;;;;4964313;28;20444;-81
2023/12/06 02:23:38;;;;;;;0.63;0.63;;;4.20;99.90;;;;;;4959764;28;20076;-81
2023/12/06 02:26:05;;;;;;;1.00;1.00;;;4.20;99.90;;;;;;4962495;28;20039;-80
2023/12/06 02:28:31;;;;;;;1.30;1.20;;;4.20;99.90;;;;;;4967720;28;20035;-80
2023/12/06 02:30:57;;;;;;;0.80;0.80;;;4.20;99.90;;;;;;4961251;28;20035;-80
2023/12/06 02:33:26;;;;;;;0.40;0.40;;;4.20;99.90;;;;;;4960813;28;20042;-80
2023/12/06 02:35:56;;;;;;;0.75;0.75;;;4.20;99.90;;;;;;4960621;28;20046;-80
2023/12/06 02:38:22;;;;;;;0.55;0.55;;;4.30;99.90;;;;;;4964490;28;20035;-80
2023/12/06 02:40:50;;;;;;;0.40;0.40;;;4.20;99.90;;;;;;4963888;28;20037;-81
2023/12/06 02:43:17;;;;;;;0.20;0.20;;;4.30;99.90;;;;;;4947071;28;20046;-80
2023/12/06 02:45:44;;;;;;;1.95;1.45;;;4.30;99.90;;;;;;4960367;28;20054;-80
2023/12/06 02:48:10;;;;;;;0.35;0.35;;;4.30;99.90;;;;;;4961309;28;20097;-80
2023/12/06 02:50:36;;;;;;;0.10;0.10;;;4.30;99.90;;;;;;4947198;28;20408;-81
2023/12/06 02:53:03;;;;;;;0.10;0.10;;;4.30;99.90;;;;;;4966362;28;20031;-81
2023/12/06 02:55:29;;;;;;;0.30;0.30;;;4.30;99.90;;;;;;4965601;28;20042;-80
2023/12/06 02:57:55;;;;;;;0.63;0.45;;;4.30;99.90;;;;;;4941112;28;20039;-80
2023/12/06 03:00:21;;;;;;;0.85;0.50;;;4.30;99.90;;;;;;4966359;28;20366;-80
2023/12/06 03:02:48;;;;;;;1.17;1.00;;;4.30;99.90;;;;;;4945657;28;20066;-80
2023/12/06 03:05:14;;;;;;;0.47;0.47;;;4.30;99.90;;;;;;4962323;28;20042;-80
2023/12/06 03:07:40;;;;;;;0.75;0.65;;;4.30;99.90;;;;;;4960335;28;20062;-81
2023/12/06 03:10:06;;;;;;;0.63;0.63;;;4.30;99.90;;;;;;4962780;28;20035;-80
2023/12/06 03:12:33;;;;;;;0.40;0.40;;;4.30;99.90;;;;;;4965566;28;20373;-80
2023/12/06 03:14:59;;;;;;;0.40;0.40;;;4.30;99.90;;;;;;4964379;28;20047;-80
2023/12/06 03:17:25;;;;;;;0.30;0.30;;;4.30;99.90;;;;;;4960145;28;20472;-80
2023/12/06 03:19:51;;;;;;;0.45;0.45;;;4.30;99.90;;;;;;4941725;28;20046;-80
2023/12/06 03:22:17;;;;;;;2.70;0.50;;;4.30;99.90;;;;;;4944395;28;20043;-80
2023/12/06 03:24:43;;;;;;;1.23;1.02;;;4.30;99.90;;;;;;4964645;28;20043;-80
2023/12/06 03:27:09;;;;;;;0.63;0.57;;;4.30;99.90;;;;;;4951511;28;20065;-81
2023/12/06 03:29:36;;;;;;;1.08;0.70;;;4.40;99.90;;;;;;4958170;28;20468;-80
2023/12/06 03:32:02;;;;;;;0.10;0.10;;;4.40;99.90;;;;;;4966849;28;20149;-80
2023/12/06 03:34:28;;;;;;;2.17;0.90;;;4.40;99.90;;;;;;4968333;28;20022;-80
2023/12/06 03:36:54;;;;;;;1.23;1.20;;;4.40;99.90;;;;;;4970070;28;20365;-80
2023/12/06 03:39:21;;;;;;;2.28;0.88;;;4.40;99.90;;;;;;4964180;28;20038;-80
2023/12/06 03:41:47;;;;;;;0.65;0.57;;;4.40;99.90;;;;;;4966011;28;20046;-80
2023/12/06 03:44:13;;;;;;;1.08;0.73;;;4.30;99.90;;;;;;4969104;28;20046;-81
2023/12/06 03:46:39;;;;;;;0.30;0.30;;;4.30;99.90;;;;;;4968931;28;20051;-81
2023/12/06 03:49:05;;;;;;;0.35;0.35;;;4.30;99.90;;;;;;4961800;28;20061;-80
2023/12/06 03:51:31;;;;;;;0.60;0.60;;;4.30;99.90;;;;;;4962638;28;20027;-80
2023/12/06 03:53:57;;;;;;;0.47;0.47;;;4.30;99.90;;;;;;4965979;28;20060;-81
2023/12/06 03:56:24;;;;;;;0.65;0.65;;;4.30;99.90;;;;;;4953827;28;20039;-80
2023/12/06 03:58:50;;;;;;;0.88;0.88;;;4.30;99.90;;;;;;4947559;28;20404;-80
2023/12/06 04:01:16;;;;;;;1.45;1.33;;;4.30;99.90;;;;;;4944712;28;20070;-80
2023/12/06 04:03:43;;;;;;;0.20;0.20;;;4.30;99.90;;;;;;4966715;28;20050;-80
2023/12/06 04:06:10;;;;;;;0.45;0.45;;;4.30;99.90;;;;;;4968156;28;20457;-80
2023/12/06 04:08:37;;;;;;;0.60;0.60;;;4.30;99.90;;;;;;4967693;28;20392;-80
2023/12/06 04:11:04;;;;;;;0.43;0.40;;;4.30;99.90;;;;;;4956498;28;20068;-81
2023/12/06 04:13:30;;;;;;;1.55;0.85;;;4.30;99.90;;;;;;4943176;28;20043;-81
2023/12/06 04:15:56;;;;;;;0.80;0.80;;;4.30;99.90;;;;;;4966693;28;20046;-81
2023/12/06 04:18:22;;;;;;;0.30;0.30;;;4.30;99.90;;;;;;4967945;28;20419;-81
2023/12/06 04:20:49;;;;;;;0.57;0.47;;;4.40;99.90;;;;;;4964662;28;20058;-80
2023/12/06 04:23:15;;;;;;;1.38;1.10;;;4.30;99.90;;;;;;4952688;28;20046;-80
2023/12/06 04:25:41;;;;;;;1.63;0.73;;;4.40;99.90;;;;;;4963059;28;20042;-80
2023/12/06 04:28:07;;;;;;;0.95;0.95;;;4.40;99.90;;;;;;4970059;28;20064;-80
2023/12/06 04:30:33;;;;;;;0.98;0.77;;;4.40;99.90;;;;;;4966441;28;20046;-80
2023/12/06 04:33:00;;;;;;;0.85;0.82;;;4.40;99.90;;;;;;4958289;28;20376;-80
2023/12/06 04:35:26;;;;;;;0.40;0.40;;;4.50;99.90;;;;;;4966078;28;20061;-80
2023/12/06 04:37:52;;;;;;;0.32;0.32;;;4.40;99.90;;;;;;4967790;28;20031;-80
2023/12/06 04:40:18;;;;;;;0.30;0.30;;;4.50;99.90;;;;;;4967489;28;20381;-80
2023/12/06 04:42:44;;;;;;;0.60;0.60;;;4.40;99.90;;;;;;4945615;28;20492;-80
2023/12/06 04:45:11;;;;;;;0.57;0.57;;;4.50;99.90;;;;;;4965167;28;20039;-80
2023/12/06 04:47:37;;;;;;;0.95;0.73;;;4.40;99.90;;;;;;4968493;28;20034;-80
2023/12/06 04:50:04;;;;;;;0.65;0.65;;;4.50;99.90;;;;;;4967265;28;20042;-81
2023/12/06 04:52:30;;;;;;;1.00;0.85;;;4.50;99.90;;;;;;4962351;28;20027;-80
2023/12/06 04:54:57;;;;;;;0.30;0.30;;;4.50;99.90;;;;;;4948512;28;20042;-80
2023/12/06 04:57:23;;;;;;;0.30;0.30;;;4.50;99.90;;;;;;4930712;28;20039;-80
2023/12/06 04:59:49;;;;;;;2.45;0.65;;;4.50;99.90;;;;;;4968461;28;20043;-80
2023/12/06 05:02:15;;;;;;;0.60;0.60;;;4.50;99.90;;;;;;4963154;28;20393;-80
2023/12/06 05:04:41;;;;;;;1.35;1.25;;;4.50;99.90;;;;;;4959462;28;20035;-80
2023/12/06 05:07:07;;;;;;;1.45;1.40;;;4.50;99.90;;;;;;4963632;28;20059;-81
2023/12/06 05:09:35;;;;;;;1.85;1.13;;;4.50;99.90;;;;;;4967826;28;20042;-80
2023/12/06 05:12:01;;;;;;;1.40;1.30;;;4.50;99.90;;;;;;4963785;28;20039;-78
2023/12/06 05:14:27;;;;;;;1.17;0.98;;;4.50;99.90;;;;;;4966509;28;20471;-78
2023/12/06 05:16:53;;;;;;;0.55;0.55;;;4.50;99.90;;;;;;4963122;28;20039;-78
2023/12/06 05:19:19;;;;;;;0.98;0.98;;;4.50;99.90;;;;;;4963689;28;20030;-77
2023/12/06 05:21:46;;;;;;;0.70;0.55;;;4.60;99.90;;;;;;4963513;28;20026;-78
2023/12/06 05:24:12;;;;;;;0.20;0.20;;;4.60;99.90;;;;;;4962400;28;20035;-78
2023/12/06 05:26:39;;;;;;;0.68;0.68;;;4.60;99.90;;;;;;4967897;28;20027;-78
2023/12/06 05:29:05;;;;;;;1.48;1.38;;;4.60;99.90;;;;;;4967000;28;20468;-78
2023/12/06 05:31:31;;;;;;;0.50;0.50;;;4.60;99.90;;;;;;4964766;28;20023;-76
2023/12/06 05:33:58;;;;;;;0.50;0.50;;;4.60;99.90;;;;;;4960994;28;20043;-77
2023/12/06 05:36:24;;;;;;;1.40;1.08;;;4.60;99.90;;;;;;4962718;28;20042;-77
2023/12/06 05:38:50;;;;;;;0.50;0.47;;;4.60;99.90;;;;;;4961907;28;20047;-77
2023/12/06 05:41:16;;;;;;;4.53;3.28;;;4.60;99.90;;;;;;4964973;28;20042;-77
2023/12/06 05:43:43;;;;;;;0.60;0.60;;;4.60;99.90;;;;;;4966286;28;20033;-78
2023/12/06 05:46:09;;;;;;;1.20;1.05;;;4.60;99.90;;;;;;4966034;28;20047;-77
2023/12/06 05:48:35;;;;;;;1.02;0.80;;;4.60;99.90;;;;;;4959763;28;20079;-76
2023/12/06 05:51:01;;;;;;;1.30;1.17;;;4.60;99.90;;;;;;4958772;28;20155;-77
2023/12/06 05:53:27;;;;;;;1.40;1.25;;;4.60;99.90;;;;;;4963689;28;20103;-77
2023/12/06 05:55:53;;;;;;;0.63;0.63;;;4.70;99.90;;;;;;4964089;28;20027;-76
2023/12/06 05:58:20;;;;;;;0.45;0.45;;;4.80;99.90;;;;;;4960791;28;20035;-78
2023/12/06 06:00:46;;;;;;;2.35;1.67;;;4.80;99.90;;;;;;4960784;28;20034;-78
2023/12/06 06:03:12;;;;;;;0.55;0.55;;;4.80;99.90;;;;;;4965096;28;20031;-76
2023/12/06 06:05:38;;;;;;;0.73;0.73;;;4.80;99.90;;;;;;4967456;28;20380;-76
2023/12/06 06:08:05;;;;;;;4.60;1.45;;;4.80;99.90;;;;;;4963097;28;20038;-78
2023/12/06 06:10:31;;;;;;;0.68;0.68;;;4.80;99.90;;;;;;4944925;28;20046;-77
2023/12/06 06:12:57;;;;;;;0.52;0.40;;;4.70;99.90;;;;;;4964051;28;20031;-77
2023/12/06 06:15:23;;;;;;;2.22;1.98;;;4.70;99.90;;;;;;4962446;28;20043;-77
2023/12/06 06:17:49;;;;;;;1.60;1.50;;;4.80;99.90;;;;;;4963948;28;20035;-77
2023/12/06 06:20:16;;;;;;;0.68;0.55;;;4.80;99.90;;;;;;4963086;28;20031;-76
2023/12/06 06:22:42;;;;;;;0.75;0.75;;;4.70;99.90;;;;;;4945110;28;20039;-76
2023/12/06 06:25:09;;;;;;;0.63;0.52;;;4.70;99.90;;;;;;4963907;28;20038;-78
2023/12/06 06:27:35;;;;;;;0.98;0.98;;;4.70;99.90;;;;;;4953498;28;20042;-77
2023/12/06 06:30:02;;;;;;;1.42;1.33;;;4.70;99.90;;;;;;4965680;28;20061;-76
2023/12/06 06:32:28;;;;;;;1.85;0.95;;;4.60;99.90;;;;;;4951183;28;20066;-77
2023/12/06 06:34:54;;;;;;;3.03;1.30;;;4.50;99.90;;;;;;4967450;28;20027;-80
2023/12/06 06:37:20;;;;;;;2.03;1.88;;;4.50;99.90;;;;;;4946888;28;20042;-76
2023/12/06 06:39:47;;;;;;;0.73;0.73;;;4.50;99.90;;;;;;4962639;28;20043;-79
2023/12/06 06:42:13;;;;;;;2.75;1.73;;;4.40;99.90;;;;;;4963109;28;20279;-79
2023/12/06 06:44:40;;;;;;;7.63;1.67;;;4.40;99.90;;;;;;4947865;28;20050;-79
2023/12/06 06:47:07;;;;;;;2.45;2.30;;;4.30;99.90;;;;;;4948638;28;20066;-77
2023/12/06 06:49:33;;;;;;;1.85;1.75;;;4.20;99.90;;;;;;4965443;28;20487;-77
2023/12/06 06:52:00;;;;;;;3.10;1.30;;;4.20;99.90;;;;;;4958010;28;20050;-78
2023/12/06 06:54:26;;;;;;;0.85;0.85;;;4.10;99.90;;;;;;4946897;28;20031;-79
2023/12/06 06:56:52;;;;;;;1.27;1.25;;;4.10;99.90;;;;;;4963197;28;20039;-80
2023/12/06 06:59:18;;;;;;;1.08;1.08;;;4.10;99.90;;;;;;4948594;28;20038;-81
2023/12/06 07:01:45;;;;;;;1.15;1.05;;;4.10;99.90;;;;;;4959883;28;20039;-84
2023/12/06 07:04:11;;;;;;;1.20;0.90;;;4.00;99.90;;;;;;4958494;28;20384;-80
2023/12/06 07:06:38;;;;;;;0.93;0.93;;;4.00;99.90;;;;;;4965173;28;20393;-82
2023/12/06 07:09:04;;;;;;;0.60;0.60;;;4.00;99.90;;;;;;4966141;28;20042;-81
2023/12/06 07:11:30;;;;;;;4.13;1.85;;;3.90;96.00;;;;;;4963020;28;20054;-80
2023/12/06 07:13:57;;;;;;;0.73;0.70;;;3.90;93.20;;;;;;4960316;28;20051;-81
2023/12/06 07:16:23;;;;;;;2.10;1.65;;;3.90;65.70;;;;;;4944528;28;20051;-81
2023/12/06 07:18:50;;;;;;;2.15;2.00;;;3.80;53.00;;;;;;4965630;28;20039;-80
2023/12/06 07:21:16;;;;;;;1.17;1.15;;;3.80;35.30;;;;;;4949214;28;20058;-80
2023/12/06 07:23:44;;;;;;;1.25;1.17;;;3.80;81.10;;;;;;4958628;28;20612;-84
2023/12/06 07:26:11;;;;;;;0.40;0.40;;;3.70;91.90;;;;;;4960344;28;20035;-81
2023/12/06 07:28:37;;;;;;;2.83;2.58;;;3.70;43.30;;;;;;4967769;28;20031;-86
2023/12/06 07:31:03;;;;;;;0.73;0.73;;;3.70;1.00;;;;;;4947842;28;20055;-81
2023/12/06 07:33:30;;;;;;;0.80;0.80;;;3.70;9.40;;;;;;4962522;28;20035;-82
2023/12/06 07:35:56;;;;;;;1.52;1.20;;;3.70;1.00;;;;;;4959633;28;20039;-81
2023/12/06 07:38:25;;;;;;;2.03;1.85;;;3.70;1.00;;;;;;4961098;28;20031;-82
2023/12/06 07:40:51;;;;;;;0.93;0.93;;;3.70;1.00;;;;;;4963814;28;20051;-82
2023/12/06 07:43:17;;;;;;;3.90;1.75;;;3.70;1.00;;;;;;4963964;28;20039;-85
2023/12/06 07:45:44;;;;;;;3.75;1.63;;;3.80;1.00;;;;;;4958068;28;20052;-82
2023/12/06 07:48:10;;;;;;;2.83;1.30;;;3.70;1.00;;;;;;4960267;28;20046;-81
2023/12/06 07:50:36;;;;;;;1.00;0.80;;;3.70;1.00;;;;;;4964293;28;20492;-81
2023/12/06 07:53:03;;;;;;;1.25;1.15;;;3.70;1.00;;;;;;4965151;28;20046;-82
2023/12/06 07:55:29;;;;;;;1.85;1.75;;;3.70;1.00;;;;;;4954770;28;20088;-81
2023/12/06 07:57:55;;;;;;;2.65;2.05;;;3.70;1.00;;;;;;4945935;28;20043;-81
2023/12/06 08:00:22;;;;;;;0.90;0.90;;;3.80;99.90;;;;;;4955678;28;20039;-81
2023/12/06 08:02:48;;;;;;;2.25;1.65;;;3.70;99.90;;;;;;4950009;28;20317;-81
2023/12/06 08:05:16;;;;;;;0.77;0.77;;;3.80;99.90;;;;;;4950311;28;20097;-81
2023/12/06 08:07:42;;;;;;;1.95;1.85;;;3.70;99.90;;;;;;4950912;28;20054;-80
2023/12/06 08:10:12;;;;;;;1.38;1.27;;;3.80;99.90;;;;;;4947123;28;20039;-85
2023/12/06 08:12:38;;;;;;;0.95;0.95;;;3.70;99.90;;;;;;4941480;28;20393;-81
2023/12/06 08:15:06;;;;;;;1.17;1.05;;;3.80;99.90;;;;;;4968294;28;20043;-80
2023/12/06 08:17:32;;;;;;;1.95;0.93;;;3.80;99.90;;;;;;4957193;28;20039;-82
2023/12/06 08:19:59;;;;;;;3.85;1.42;;;3.80;99.90;;;;;;4961053;28;20050;-82
2023/12/06 08:22:26;;;;;;;2.60;1.10;;;3.80;99.90;;;;;;4966085;28;20042;-81
2023/12/06 08:24:56;;;;;;;1.00;1.00;;;3.80;99.90;;;;;;4968949;28;20384;-81
2023/12/06 08:27:30;;;;;;;0.88;0.77;;;3.90;99.90;;;;;;4963295;28;20043;-81
2023/12/06 08:29:57;;;;;;;0.88;0.88;;;3.80;99.90;;;;;;4961023;28;20039;-81
2023/12/06 08:32:24;;;;;;;0.30;0.30;;;3.80;99.90;;;;;;4966953;28;20052;-81
2023/12/06 08:34:51;;;;;;;8.68;1.65;;;3.80;99.90;;;;;;4966649;28;20054;-80
2023/12/06 08:37:17;;;;;;;0.85;0.82;;;3.80;99.90;;;;;;4963498;28;20042;-81
2023/12/06 08:39:44;;;;;;;5.55;1.95;;;3.80;99.90;;;;;;4960634;28;20027;-78
2023/12/06 08:42:16;;;;;;;0.50;0.50;;;3.90;99.90;;;;;;4964918;28;20043;-79
2023/12/06 08:44:43;;;;;;;2.25;2.10;;;3.90;99.90;;;;;;4967127;28;20050;-79
2023/12/06 08:47:12;;;;;;;1.30;1.17;;;3.90;99.90;;;;;;4967208;28;20046;-78
2023/12/06 08:49:39;;;;;;;1.70;0.60;;;3.90;99.90;;;;;;4960796;28;20513;-79
2023/12/06 08:52:06;;;;;;;0.75;0.75;;;3.90;99.90;;;;;;4960736;28;20051;-78
2023/12/06 08:54:33;;;;;;;0.65;0.65;;;3.90;99.90;;;;;;4969221;28;20027;-78
2023/12/06 08:57:00;;;;;;;3.25;1.35;;;3.90;99.90;;;;;;4968493;28;20043;-79
2023/12/06 08:59:26;;;;;;;0.52;0.52;;;3.90;99.90;;;;;;4965363;28;20034;-79
2023/12/06 09:01:53;;;;;;;0.90;0.90;;;3.90;99.90;;;;;;4962928;28;20380;-78
2023/12/06 09:04:19;;;;;;;0.28;0.28;;;3.90;99.90;;;;;;4968575;28;20027;-79
2023/12/06 09:06:46;;;;;;;1.50;1.30;;;4.00;99.90;;;;;;4967575;28;20388;-79
2023/12/06 09:09:12;;;;;;;1.85;1.75;;;4.00;99.90;;;;;;4948182;28;20042;-80
2023/12/06 09:11:39;;;;;;;2.38;1.50;;;4.00;99.90;;;;;;4960751;28;20045;-78
2023/12/06 09:14:05;;;;;;;0.77;0.77;;;4.00;99.90;;;;;;4965465;28;20042;-78
2023/12/06 09:16:31;;;;;;;0.50;0.50;;;3.90;99.90;;;;;;4966924;28;20039;-77
2023/12/06 09:18:57;;;;;;;2.63;1.05;;;4.00;99.90;;;;;;4966258;28;20392;-77
2023/12/06 09:21:26;;;;;;;0.50;0.47;;;4.00;99.90;;;;;;4961426;28;20046;-78
2023/12/06 09:23:52;;;;;;;2.58;0.82;;;4.00;99.90;;;;;;4961004;28;20412;-79
2023/12/06 09:26:19;;;;;;;0.45;0.45;;;4.00;99.90;;;;;;4965678;28;20035;-77
2023/12/06 09:28:46;;;;;;;1.05;1.05;;;4.00;99.90;;;;;;4968805;28;20519;-78
2023/12/06 09:31:12;;;;;;;1.17;1.08;;;4.00;99.90;;;;;;4963526;28;20035;-78
2023/12/06 09:33:39;;;;;;;0.68;0.68;;;4.00;99.90;;;;;;4963612;28;20465;-78
2023/12/06 09:36:05;;;;;;;0.95;0.88;;;4.00;99.90;;;;;;4964763;28;20496;-79
2023/12/06 09:38:32;;;;;;;0.98;0.95;;;4.10;99.90;;;;;;4967614;28;20035;-78
2023/12/06 09:40:58;;;;;;;7.38;1.58;;;4.10;99.90;;;;;;4961922;28;20050;-79
2023/12/06 09:43:25;;;;;;;0.50;0.50;;;4.10;99.90;;;;;;4962742;28;20027;-79
2023/12/06 09:45:52;;;;;;;2.13;1.15;;;4.10;99.90;;;;;;4963354;28;20062;-78
2023/12/06 09:48:18;;;;;;;1.85;1.63;;;4.10;99.90;;;;;;4963470;28;20039;-78
2023/12/06 09:50:44;;;;;;;0.65;0.65;;;4.20;99.90;;;;;;4966223;28;20381;-78
2023/12/06 09:53:11;;;;;;;0.47;0.47;;;4.20;99.90;;;;;;4963260;28;20046;-78
2023/12/06 09:55:38;;;;;;;1.52;1.42;;;4.20;99.90;;;;;;4962007;28;20504;-78
2023/12/06 09:58:06;;;;;;;1.25;1.10;;;4.10;99.90;;;;;;4965564;28;20357;-78
2023/12/06 10:00:33;;;;;;;1.02;0.77;;;4.20;99.90;;;;;;4967357;28;20047;-78
2023/12/06 10:03:00;;;;;;;0.68;0.68;;;4.20;99.90;;;;;;4969094;28;20042;-77
2023/12/06 10:05:26;;;;;;;4.00;1.77;;;4.20;99.90;;;;;;4958775;28;20035;-79
2023/12/06 10:07:52;;;;;;;0.30;0.30;;;4.20;99.90;;;;;;4962638;28;20046;-78
2023/12/06 10:10:23;;;;;;;1.55;1.08;;;4.30;99.90;;;;;;4968289;28;20041;-78
2023/12/06 10:12:55;;;;;;;2.10;1.85;;;4.20;99.90;;;;;;4965157;28;20030;-77
2023/12/06 10:15:22;;;;;;;0.57;0.55;;;4.20;99.90;;;;;;4963920;28;20043;-78
2023/12/06 10:17:49;;;;;;;0.65;0.63;;;4.30;99.90;;;;;;4963901;28;20042;-78
2023/12/06 10:20:16;;;;;;;0.30;0.30;;;4.30;99.90;;;;;;4965283;28;20046;-81
2023/12/06 10:22:44;;;;;;;0.50;0.50;;;4.30;99.90;;;;;;4965541;28;20051;-80
2023/12/06 10:25:10;;;;;;;0.68;0.68;;;4.30;99.90;;;;;;4963307;28;20227;-80
2023/12/06 10:27:37;;;;;;;2.47;1.27;;;4.30;99.90;;;;;;4962080;28;20038;-80
2023/12/06 10:30:05;;;;;;;0.82;0.82;;;4.30;99.90;;;;;;4963387;28;20041;-80
2023/12/06 10:32:32;;;;;;;0.73;0.73;;;4.30;99.90;;;;;;4966010;28;20050;-79
2023/12/06 10:35:00;;;;;;;1.77;1.63;;;4.30;99.90;;;;;;4963358;28;20046;-80
2023/12/06 10:37:28;;;;;;;1.60;1.00;;;4.30;99.90;;;;;;4958261;28;20031;-80
2023/12/06 10:40:09;;;;;;;3.65;2.38;;;4.30;99.90;;;;;;4961601;28;20031;-80
2023/12/06 10:42:36;;;;;;;0.32;0.32;;;4.30;99.90;;;;;;4965768;28;20038;-80
2023/12/06 10:45:04;;;;;;;0.20;0.20;;;4.40;99.90;;;;;;4964302;28;20035;-79
2023/12/06 10:47:31;;;;;;;2.85;1.90;;;4.40;99.90;;;;;;4960377;28;20047;-80
2023/12/06 10:49:59;;;;;;;1.30;0.88;;;4.40;99.90;;;;;;4962707;28;20050;-80
2023/12/06 10:52:26;;;;;;;0.68;0.68;;;4.40;99.90;;;;;;4957337;28;20043;-79
2023/12/06 10:54:54;;;;;;;1.48;1.20;;;4.40;99.90;;;;;;4956029;28;20507;-81
2023/12/06 10:57:20;;;;;;;1.15;1.08;;;4.50;99.90;;;;;;4957885;28;20068;-81
2023/12/06 10:59:47;;;;;;;1.35;1.25;;;4.50;99.90;;;;;;4958509;28;20042;-79
2023/12/06 11:02:15;;;;;;;1.10;1.05;;;4.50;99.90;;;;;;4964734;28;20030;-79
2023/12/06 11:04:47;;;;;;;2.22;2.03;;;4.50;99.90;;;;;;4961848;28;20058;-79
2023/12/06 11:07:29;;;;;;;1.25;1.15;;;4.50;99.90;;;;;;4964390;28;20038;-80
2023/12/06 11:10:09;;;;;;;0.43;0.43;;;4.50;98.10;;;;;;4961122;28;20489;-79
2023/12/06 11:13:14;;;;;;;0.50;0.50;;;4.50;97.40;;;;;;4959322;28;20038;-78
2023/12/06 11:16:03;;;;;;;1.25;1.15;;;4.60;42.30;;;;;;4966083;28;20047;-77
2023/12/06 11:18:45;;;;;;;0.65;0.65;;;4.70;78.70;;;;;;4956868;28;20385;-78
2023/12/06 11:21:13;;;;;;;0.45;0.45;;;4.70;50.30;;;;;;4944250;28;20046;-77
2023/12/06 11:23:45;;;;;;;0.60;0.60;;;4.70;36.80;;;;;;4964526;28;20030;-78
2023/12/06 11:26:11;;;;;;;1.52;1.40;;;4.70;53.10;;;;;;4962847;28;20050;-78
2023/12/06 11:28:41;;;;;;;0.65;0.65;;;4.70;47.80;;;;;;4960210;28;20035;-77
2023/12/06 11:31:13;;;;;;;0.88;0.82;;;4.80;58.10;;;;;;4957072;28;20400;-77
2023/12/06 11:33:39;;;;;;;;;;;4.80;92.50;;;;;;4964024;28;20050;-77
2023/12/06 11:36:15;;;;;;;0.60;0.60;;;4.70;79.20;;;;;;4965957;28;20612;-77
2023/12/06 11:38:42;;;;;;;1.55;1.45;;;4.80;52.40;;;;;;4962678;28;20039;-76
2023/12/06 11:41:15;;;;;;;2.58;1.52;;;4.80;52.10;;;;;;4958692;28;20039;-77
2023/12/06 11:43:52;;;;;;;0.40;0.40;;;4.80;29.70;;;;;;4962072;28;20035;-78
2023/12/06 11:46:21;;;;;;;1.38;0.73;;;4.80;46.50;;;;;;4963385;28;20066;-77
2023/12/06 11:48:50;;;;;;;0.32;0.32;;;4.80;49.00;;;;;;4963644;28;20484;-77
2023/12/06 11:51:25;;;;;;;0.98;0.98;;;4.80;40.70;;;;;;4961925;28;20375;-78
2023/12/06 11:53:53;;;;;;;0.73;0.73;;;4.80;52.00;;;;;;4965154;28;20058;-77
2023/12/06 11:56:23;;;;;;;1.58;1.48;;;4.80;77.80;;;;;;4969702;28;20035;-77
2023/12/06 11:58:50;;;;;;;0.50;0.50;;;4.80;69.40;;;;;;4967907;28;20030;-77
2023/12/06 12:01:18;;;;;;;0.63;0.63;;;4.80;91.70;;;;;;4965732;28;20333;-78
2023/12/06 12:03:46;;;;;;;1.00;0.95;;;4.80;60.80;;;;;;4955256;28;20035;-78
2023/12/06 12:06:15;;;;;;;1.42;1.33;;;4.80;63.00;;;;;;4965897;28;20038;-78
2023/12/06 12:08:42;;;;;;;1.75;1.67;;;4.80;35.20;;;;;;4964780;28;20050;-77
2023/12/06 12:11:10;;;;;;;1.50;0.77;;;4.80;35.40;;;;;;4968470;28;20042;-77
2023/12/06 12:13:37;;;;;;;0.68;0.68;;;4.80;35.80;;;;;;4964769;28;20034;-77
2023/12/06 12:16:05;;;;;;;2.15;1.38;;;4.80;23.00;;;;;;4963007;28;20027;-77
2023/12/06 12:18:32;;;;;;;2.00;1.17;;;4.80;41.80;;;;;;4966965;28;20050;-76
2023/12/06 12:20:58;;;;;;;0.55;0.55;;;4.80;42.60;;;;;;4969878;28;20395;-77
2023/12/06 12:23:26;;;;;;;1.23;1.13;;;4.80;43.30;;;;;;4966575;28;20031;-77
2023/12/06 12:25:52;;;;;;;0.63;0.63;;;4.80;21.50;;;;;;4973870;28;20484;-77
2023/12/06 12:28:20;;;;;;;1.55;1.27;;;4.90;19.90;;;;;;4970556;28;20103;-77
2023/12/06 12:30:50;;;;;;;1.40;1.30;;;4.80;37.00;;;;;;4970082;28;20042;-77
2023/12/06 12:33:18;;;;;;;0.30;0.30;;;4.90;49.80;;;;;;4969915;28;20042;-77
2023/12/06 12:35:45;;;;;;;1.70;1.25;;;4.90;72.10;;;;;;4945933;29;20035;-77
2023/12/06 12:38:11;;;;;;;0.82;0.82;;;4.90;51.50;;;;;;4965079;28;20490;-77
2023/12/06 12:40:38;;;;;;;1.20;1.20;;;4.90;71.90;;;;;;4968963;28;20034;-76
2023/12/06 12:43:05;;;;;;;1.20;1.08;;;4.90;50.60;;;;;;4966397;28;20043;-77
2023/12/06 12:45:31;;;;;;;0.88;0.88;;;4.90;55.00;;;;;;4963505;28;20365;-77
2023/12/06 12:47:58;;;;;;;1.45;1.35;;;4.90;54.30;;;;;;4929777;28;20038;-77
2023/12/06 12:50:25;;;;;;;0.75;0.73;;;4.90;70.20;;;;;;4972707;28;20464;-78
2023/12/06 12:52:55;;;;;;;1.33;1.23;;;4.90;44.70;;;;;;4969008;28;20042;-78
2023/12/06 12:55:22;;;;;;;0.35;0.35;;;4.90;49.60;;;;;;4965846;28;20039;-77
2023/12/06 12:57:51;;;;;;;2.70;1.92;;;4.90;68.60;;;;;;4965214;28;20034;-77